Time;durP1;ratioP1;P1;durP2;ratioP2;P2;SDS_P1;SDS_P2;PMS_P1;PMS_P2;Temp;Humidity;BMP_temperature;BMP_pressure;BME280_temperature;BME280_humidity;BME280_pressure;Samples;Min_cycle;Max_cycle;Signal;HPM_P1;HPM_P2
2022/12/12 00:01:48;;;;;;;14.38;10.27;;;;;;;;;;5076170;28;20462;-63
2022/12/12 00:04:13;;;;;;;13.38;9.25;;;;;;;;;;5076392;28;20091;-63
2022/12/12 00:06:39;;;;;;;11.68;9.02;;;;;;;;;;5076235;28;20052;-64
2022/12/12 00:09:04;;;;;;;13.13;9.27;;;;;;;;;;5076207;28;20020;-64
2022/12/12 00:11:30;;;;;;;14.85;10.02;;;;;;;;;;5076108;28;20107;-64
2022/12/12 00:13:55;;;;;;;12.98;9.40;;;;;;;;;;5075814;28;20524;-64
2022/12/12 00:16:21;;;;;;;15.50;11.20;;;;;;;;;;5076149;28;20028;-64
2022/12/12 00:18:47;;;;;;;18.27;11.60;;;;;;;;;;5076295;28;20074;-64
2022/12/12 00:21:14;;;;;;;12.63;9.85;;;;;;;;;;5075885;28;20425;-64
2022/12/12 00:23:39;;;;;;;14.13;9.88;;;;;;;;;;5076224;28;20350;-64
2022/12/12 00:26:07;;;;;;;13.77;9.85;;;;;;;;;;5075776;28;20032;-63
2022/12/12 00:28:32;;;;;;;14.48;10.07;;;;;;;;;;5076007;28;20020;-64
2022/12/12 00:30:58;;;;;;;14.27;9.73;;;;;;;;;;5076081;28;20537;-64
2022/12/12 00:33:23;;;;;;;12.30;9.75;;;;;;;;;;5075924;28;20461;-64
2022/12/12 00:35:50;;;;;;;13.38;8.52;;;;;;;;;;5058008;28;20123;-63
2022/12/12 00:38:16;;;;;;;12.60;9.93;;;;;;;;;;5075670;28;20064;-64
2022/12/12 00:40:42;;;;;;;16.42;11.68;;;;;;;;;;5075528;28;20033;-64
2022/12/12 00:43:07;;;;;;;15.52;11.77;;;;;;;;;;5057688;28;20370;-64
2022/12/12 00:45:32;;;;;;;14.00;11.18;;;;;;;;;;5075727;28;20075;-70
2022/12/12 00:47:58;;;;;;;14.38;10.35;;;;;;;;;;5075320;28;20373;-70
2022/12/12 00:50:23;;;;;;;16.67;11.35;;;;;;;;;;5075202;28;20033;-63
2022/12/12 00:52:49;;;;;;;13.88;10.23;;;;;;;;;;5075504;28;20066;-63
2022/12/12 00:55:14;;;;;;;13.15;9.07;;;;;;;;;;5075379;28;20417;-64
2022/12/12 00:57:39;;;;;;;16.15;11.23;;;;;;;;;;5075386;28;20056;-63
2022/12/12 01:00:06;;;;;;;18.23;11.65;;;;;;;;;;5074873;28;20033;-63
2022/12/12 01:02:31;;;;;;;17.38;12.82;;;;;;;;;;5086675;28;20036;-63
2022/12/12 01:04:57;;;;;;;18.92;13.50;;;;;;;;;;5095825;28;20031;-64
2022/12/12 01:07:23;;;;;;;20.65;13.30;;;;;;;;;;5095562;28;20091;-64
2022/12/12 01:09:48;;;;;;;20.27;14.23;;;;;;;;;;5095747;28;20039;-63
2022/12/12 01:12:13;;;;;;;26.20;15.68;;;;;;;;;;5095692;28;20027;-63
2022/12/12 01:14:39;;;;;;;22.98;15.23;;;;;;;;;;5095858;28;20032;-64
2022/12/12 01:17:04;;;;;;;25.35;15.65;;;;;;;;;;5095200;28;20024;-63
2022/12/12 01:19:30;;;;;;;24.83;15.45;;;;;;;;;;5095551;28;20024;-64
2022/12/12 01:21:55;;;;;;;23.38;16.05;;;;;;;;;;5095141;28;20024;-64
2022/12/12 01:24:20;;;;;;;25.23;14.75;;;;;;;;;;5095357;28;20126;-63
2022/12/12 01:26:46;;;;;;;22.70;14.73;;;;;;;;;;5077206;28;20020;-63
2022/12/12 01:29:11;;;;;;;24.17;15.57;;;;;;;;;;5095169;28;20040;-63
2022/12/12 01:31:36;;;;;;;21.75;13.93;;;;;;;;;;5095109;28;20024;-63
2022/12/12 01:34:02;;;;;;;16.08;10.73;;;;;;;;;;5094957;28;20044;-63
2022/12/12 01:36:27;;;;;;;17.67;13.25;;;;;;;;;;5094954;28;20052;-63
2022/12/12 01:38:53;;;;;;;15.00;10.45;;;;;;;;;;5095180;28;20024;-63
2022/12/12 01:41:20;;;;;;;14.75;10.88;;;;;;;;;;5094918;28;20028;-64
2022/12/12 01:43:45;;;;;;;16.58;11.73;;;;;;;;;;5094975;28;20020;-64
2022/12/12 01:46:30;;;;;;;11.20;8.55;;;;;;;;;;5094782;28;20491;-64
2022/12/12 01:48:57;;;;;;;10.80;8.15;;;;;;;;;;5094666;28;20064;-64
2022/12/12 01:51:25;;;;;;;10.57;8.23;;;;;;;;;;5094673;28;20082;-64
2022/12/12 01:53:52;;;;;;;12.73;8.30;;;;;;;;;;5094894;28;20087;-63
2022/12/12 01:56:19;;;;;;;12.50;8.88;;;;;;;;;;5076554;28;20366;-63
2022/12/12 01:58:46;;;;;;;10.68;8.52;;;;;;;;;;5094633;28;20040;-63
2022/12/12 02:01:11;;;;;;;11.18;8.75;;;;;;;;;;5094765;28;20424;-63
2022/12/12 02:03:38;;;;;;;10.55;7.93;;;;;;;;;;5074956;28;20052;-63
2022/12/12 02:06:05;;;;;;;10.13;7.68;;;;;;;;;;5094366;28;20108;-63
2022/12/12 02:08:31;;;;;;;11.27;8.35;;;;;;;;;;5092242;28;20020;-63
2022/12/12 02:10:57;;;;;;;12.30;8.25;;;;;;;;;;5093277;28;20011;-63
2022/12/12 02:13:24;;;;;;;11.70;8.77;;;;;;;;;;5093308;28;20078;-64
2022/12/12 02:16:08;;;;;;;11.25;8.25;;;;;;;;;;5094244;28;20107;-64
2022/12/12 02:18:39;;;;;;;11.27;7.78;;;;;;;;;;5093794;28;20024;-64
2022/12/12 02:21:24;;;;;;;10.43;7.85;;;;;;;;;;5094278;28;20035;-64
2022/12/12 02:23:59;;;;;;;12.50;8.98;;;;;;;;;;5094130;28;20028;-63
2022/12/12 02:26:50;;;;;;;13.55;8.75;;;;;;;;;;5094100;28;20505;-63
2022/12/12 02:29:15;;;;;;;13.65;9.68;;;;;;;;;;5093863;28;20400;-64
2022/12/12 02:31:51;;;;;;;12.48;8.85;;;;;;;;;;5093939;28;20098;-64
2022/12/12 02:34:34;;;;;;;15.88;9.73;;;;;;;;;;5093976;28;20024;-64
2022/12/12 02:37:03;;;;;;;12.90;9.10;;;;;;;;;;5083804;28;20490;-64
2022/12/12 02:39:47;;;;;;;13.52;9.88;;;;;;;;;;5073357;28;20116;-64
2022/12/12 02:42:20;;;;;;;13.23;8.88;;;;;;;;;;5073545;28;20048;-64
2022/12/12 02:44:57;;;;;;;13.52;8.95;;;;;;;;;;5073309;28;20115;-64
2022/12/12 02:47:26;;;;;;;14.15;9.48;;;;;;;;;;5073830;28;20366;-64
2022/12/12 02:50:09;;;;;;;11.10;8.88;;;;;;;;;;5073916;28;20020;-64
2022/12/12 02:52:35;;;;;;;12.23;8.63;;;;;;;;;;5073869;28;20075;-64
2022/12/12 02:55:01;;;;;;;15.68;10.13;;;;;;;;;;5073720;28;20418;-63
2022/12/12 02:57:26;;;;;;;17.30;9.77;;;;;;;;;;5073421;28;20058;-63
2022/12/12 03:00:11;;;;;;;15.73;9.23;;;;;;;;;;5074021;28;20028;-64
2022/12/12 03:02:39;;;;;;;13.50;10.27;;;;;;;;;;5073362;28;20118;-63
2022/12/12 03:07:59;;;;;;;15.77;10.30;;;;;;;;;;5073699;28;20032;-63
2022/12/12 03:10:24;;;;;;;14.45;10.13;;;;;;;;;;5073906;28;20036;-64
2022/12/12 03:13:03;;;;;;;15.02;9.57;;;;;;;;;;5073786;28;20033;-64
2022/12/12 03:15:49;;;;;;;12.48;8.98;;;;;;;;;;5073762;28;20510;-64
2022/12/12 03:18:23;;;;;;;14.68;9.10;;;;;;;;;;5065528;28;20036;-64
2022/12/12 03:20:49;;;;;;;13.32;8.25;;;;;;;;;;5073282;28;20040;-64
2022/12/12 03:23:16;;;;;;;14.95;9.27;;;;;;;;;;5072904;28;20136;-64
2022/12/12 03:25:41;;;;;;;13.70;10.00;;;;;;;;;;5073505;28;20028;-63
2022/12/12 03:28:10;;;;;;;15.25;10.35;;;;;;;;;;5073491;28;20024;-63
2022/12/12 03:30:41;;;;;;;12.73;8.80;;;;;;;;;;5075812;28;20037;-63
2022/12/12 03:33:12;;;;;;;11.95;8.88;;;;;;;;;;5077219;28;20029;-63
2022/12/12 03:36:07;;;;;;;11.95;8.30;;;;;;;;;;5059292;28;20048;-64
2022/12/12 03:38:35;;;;;;;11.63;8.55;;;;;;;;;;5063506;28;20143;-64
2022/12/12 03:41:03;;;;;;;12.43;7.97;;;;;;;;;;5077367;28;20052;-63
2022/12/12 03:43:41;;;;;;;11.93;8.82;;;;;;;;;;5077068;28;20362;-63
2022/12/12 03:46:18;;;;;;;11.15;8.18;;;;;;;;;;5077252;28;20029;-64
2022/12/12 03:48:49;;;;;;;11.57;8.45;;;;;;;;;;5076807;28;20071;-63
2022/12/12 03:51:26;;;;;;;13.63;9.55;;;;;;;;;;5077021;28;20421;-64
2022/12/12 03:53:55;;;;;;;11.82;8.40;;;;;;;;;;5076709;28;20033;-64
2022/12/12 03:56:25;;;;;;;11.52;8.10;;;;;;;;;;5077125;28;20091;-64
2022/12/12 03:58:54;;;;;;;11.05;8.27;;;;;;;;;;5076586;28;20037;-64
2022/12/12 04:01:24;;;;;;;11.52;7.57;;;;;;;;;;5076566;28;20035;-64
2022/12/12 04:03:52;;;;;;;14.23;10.00;;;;;;;;;;5058588;28;20098;-63
2022/12/12 04:06:27;;;;;;;12.73;8.90;;;;;;;;;;5076687;28;20027;-63
2022/12/12 04:14:44;;;;;;;11.98;8.93;;;;;;;;;;5076706;28;20056;-64
2022/12/12 04:17:11;;;;;;;10.75;8.15;;;;;;;;;;5076261;28;20378;-63
2022/12/12 04:25:29;;;;;;;13.73;9.13;;;;;;;;;;5076213;28;20025;-63
2022/12/12 04:28:00;;;;;;;15.00;10.15;;;;;;;;;;5058233;28;20737;-64
2022/12/12 04:30:28;;;;;;;14.98;10.30;;;;;;;;;;5076202;28;20029;-63
2022/12/12 04:33:07;;;;;;;14.55;10.82;;;;;;;;;;5076540;28;20455;-63
2022/12/12 04:35:36;;;;;;;13.05;9.82;;;;;;;;;;5058294;28;20421;-64
2022/12/12 04:38:10;;;;;;;11.30;8.68;;;;;;;;;;5075838;28;20041;-64
2022/12/12 04:40:43;;;;;;;14.60;10.63;;;;;;;;;;5075693;28;20471;-64
2022/12/12 04:43:13;;;;;;;13.68;10.68;;;;;;;;;;5075775;28;20028;-63
2022/12/12 04:45:43;;;;;;;14.52;10.63;;;;;;;;;;5076118;28;20020;-63
2022/12/12 04:48:11;;;;;;;12.35;9.25;;;;;;;;;;5076197;28;20447;-64
2022/12/12 04:50:37;;;;;;;15.60;10.57;;;;;;;;;;5076077;28;20451;-64
2022/12/12 04:53:06;;;;;;;15.48;11.55;;;;;;;;;;5076083;28;20378;-64
2022/12/12 04:55:33;;;;;;;17.35;12.13;;;;;;;;;;5075958;28;20100;-64
2022/12/12 04:58:00;;;;;;;15.18;11.60;;;;;;;;;;5075703;28;20060;-64
2022/12/12 05:00:27;;;;;;;14.35;10.93;;;;;;;;;;5075333;28;20643;-64
2022/12/12 05:03:07;;;;;;;18.80;12.68;;;;;;;;;;5075207;28;20036;-64
2022/12/12 05:05:41;;;;;;;17.85;13.05;;;;;;;;;;5057284;28;20107;-64
2022/12/12 05:08:14;;;;;;;23.35;17.70;;;;;;;;;;5075398;28;20424;-64
2022/12/12 05:10:43;;;;;;;20.83;15.73;;;;;;;;;;5075525;28;20344;-64
2022/12/12 05:13:18;;;;;;;18.48;14.65;;;;;;;;;;5075447;28;20044;-64
2022/12/12 05:15:45;;;;;;;19.60;13.57;;;;;;;;;;5075093;28;20107;-64
2022/12/12 05:18:10;;;;;;;18.33;13.00;;;;;;;;;;5057579;28;20367;-64
2022/12/12 05:20:36;;;;;;;16.25;11.57;;;;;;;;;;5075132;28;20029;-64
2022/12/12 05:23:02;;;;;;;11.90;9.57;;;;;;;;;;5074934;28;20033;-64
2022/12/12 05:25:27;;;;;;;19.45;12.98;;;;;;;;;;5075275;28;20107;-64
2022/12/12 05:27:52;;;;;;;12.80;9.32;;;;;;;;;;5075276;28;20103;-64
2022/12/12 05:30:18;;;;;;;16.70;11.13;;;;;;;;;;5075082;28;20029;-64
2022/12/12 05:32:43;;;;;;;16.42;10.93;;;;;;;;;;5075185;28;20032;-64
2022/12/12 05:35:09;;;;;;;11.82;9.05;;;;;;;;;;5074747;28;20032;-64
2022/12/12 05:37:34;;;;;;;12.30;9.43;;;;;;;;;;5075088;28;20347;-64
2022/12/12 05:40:00;;;;;;;17.98;12.00;;;;;;;;;;5074616;28;20035;-64
2022/12/12 05:42:25;;;;;;;15.02;10.05;;;;;;;;;;5073773;28;20082;-64
2022/12/12 05:44:50;;;;;;;14.55;9.98;;;;;;;;;;5074902;28;20449;-64
2022/12/12 05:47:17;;;;;;;13.55;10.07;;;;;;;;;;5074665;28;20337;-64
2022/12/12 05:49:43;;;;;;;21.15;12.23;;;;;;;;;;5074648;28;20043;-64
2022/12/12 05:52:08;;;;;;;18.70;12.88;;;;;;;;;;5074092;28;20016;-64
2022/12/12 05:54:34;;;;;;;17.48;11.77;;;;;;;;;;5074400;28;20105;-64
2022/12/12 05:56:59;;;;;;;17.58;11.18;;;;;;;;;;5064592;28;20028;-64
2022/12/12 05:59:24;;;;;;;19.50;12.07;;;;;;;;;;5090800;28;20428;-64
2022/12/12 06:01:51;;;;;;;15.70;10.52;;;;;;;;;;5094428;28;20369;-64
2022/12/12 06:04:16;;;;;;;16.33;11.55;;;;;;;;;;5094135;28;20047;-64
2022/12/12 06:06:41;;;;;;;15.07;10.40;;;;;;;;;;5094679;28;20444;-64
2022/12/12 06:09:07;;;;;;;20.02;12.45;;;;;;;;;;5093366;28;20028;-64
2022/12/12 06:11:32;;;;;;;28.55;14.02;;;;;;;;;;5094099;28;20024;-64
2022/12/12 06:13:57;;;;;;;18.35;12.00;;;;;;;;;;5087621;28;20044;-64
2022/12/12 06:16:22;;;;;;;30.48;15.05;;;;;;;;;;5087892;28;20061;-64
2022/12/12 06:18:51;;;;;;;30.83;16.02;;;;;;;;;;5090307;28;20038;-64
2022/12/12 06:21:17;;;;;;;27.55;13.77;;;;;;;;;;5089743;28;20027;-64
2022/12/12 06:23:42;;;;;;;18.00;11.65;;;;;;;;;;5089771;28;20036;-64
2022/12/12 06:26:09;;;;;;;22.85;12.18;;;;;;;;;;5089866;28;20012;-64
2022/12/12 06:28:34;;;;;;;21.77;13.07;;;;;;;;;;5089011;28;20020;-65
2022/12/12 06:31:00;;;;;;;15.98;10.95;;;;;;;;;;5089037;28;20038;-64
2022/12/12 06:33:26;;;;;;;18.08;13.15;;;;;;;;;;5088741;28;20046;-64
2022/12/12 06:35:59;;;;;;;17.67;12.43;;;;;;;;;;5088844;28;20374;-64
2022/12/12 06:38:24;;;;;;;16.02;11.77;;;;;;;;;;5070370;28;20048;-64
2022/12/12 06:40:49;;;;;;;19.08;12.85;;;;;;;;;;5089169;28;20036;-64
2022/12/12 06:43:15;;;;;;;13.68;10.48;;;;;;;;;;5088476;28;20079;-64
2022/12/12 06:45:40;;;;;;;15.02;11.43;;;;;;;;;;5089330;28;20024;-63
2022/12/12 06:48:06;;;;;;;17.25;12.90;;;;;;;;;;5089304;28;20489;-64
2022/12/12 06:50:31;;;;;;;12.48;9.73;;;;;;;;;;5070656;28;20016;-64
2022/12/12 06:52:56;;;;;;;17.00;12.18;;;;;;;;;;5088961;28;20032;-64
2022/12/12 06:55:22;;;;;;;19.00;13.43;;;;;;;;;;5088355;28;20485;-64
2022/12/12 06:57:47;;;;;;;20.00;13.55;;;;;;;;;;5088371;28;20063;-63
2022/12/12 07:00:13;;;;;;;17.75;12.13;;;;;;;;;;5088986;28;20454;-64
2022/12/12 07:02:38;;;;;;;17.55;13.00;;;;;;;;;;5088915;28;20024;-64
2022/12/12 07:05:03;;;;;;;12.38;8.32;;;;;;;;;;5092780;28;20106;-64
2022/12/12 07:07:29;;;;;;;16.92;10.48;;;;;;;;;;5092900;28;20036;-64
2022/12/12 07:09:54;;;;;;;13.20;10.13;;;;;;;;;;5075071;28;20016;-64
2022/12/12 07:12:19;;;;;;;17.98;11.82;;;;;;;;;;5093508;28;20096;-64
2022/12/12 07:14:45;;;;;;;18.08;11.15;;;;;;;;;;5097435;28;20071;-63
2022/12/12 07:17:10;;;;;;;19.17;12.75;;;;;;;;;;5097677;28;20032;-64
2022/12/12 07:19:35;;;;;;;16.88;12.38;;;;;;;;;;5097482;28;20020;-64
2022/12/12 07:22:01;;;;;;;16.65;12.18;;;;;;;;;;5097452;28;20067;-64
2022/12/12 07:24:26;;;;;;;16.67;9.25;;;;;;;;;;5097423;28;20092;-64
2022/12/12 07:26:52;;;;;;;10.90;8.40;;;;;;;;;;5097576;28;20038;-64
2022/12/12 07:29:17;;;;;;;14.20;9.95;;;;;;;;;;5097378;28;20066;-64
2022/12/12 07:31:42;;;;;;;17.10;12.60;;;;;;;;;;5097220;28;20036;-64
2022/12/12 07:34:08;;;;;;;15.63;10.98;;;;;;;;;;5097010;28;20023;-64
2022/12/12 07:36:33;;;;;;;20.77;13.75;;;;;;;;;;5095712;28;20044;-64
2022/12/12 07:38:58;;;;;;;20.13;13.43;;;;;;;;;;5076824;28;20379;-64
2022/12/12 07:41:24;;;;;;;18.98;13.00;;;;;;;;;;5077252;28;20028;-64
2022/12/12 07:43:51;;;;;;;25.95;16.30;;;;;;;;;;5095788;28;20081;-64
2022/12/12 07:46:21;;;;;;;17.13;11.88;;;;;;;;;;5095954;28;20036;-64
2022/12/12 07:48:46;;;;;;;17.63;12.50;;;;;;;;;;5095503;28;20489;-64
2022/12/12 07:51:12;;;;;;;23.55;16.15;;;;;;;;;;5094848;28;20056;-64
2022/12/12 07:53:37;;;;;;;18.58;12.00;;;;;;;;;;5094932;28;20520;-64
2022/12/12 07:56:03;;;;;;;23.55;16.48;;;;;;;;;;5095915;28;20019;-64
2022/12/12 07:58:29;;;;;;;19.60;13.57;;;;;;;;;;5095998;28;20036;-64
2022/12/12 08:00:54;;;;;;;19.88;15.13;;;;;;;;;;5096113;28;20072;-64
2022/12/12 08:03:20;;;;;;;22.35;15.57;;;;;;;;;;5096270;28;20112;-64
2022/12/12 08:05:45;;;;;;;25.40;16.70;;;;;;;;;;5096585;28;20447;-64
2022/12/12 08:08:10;;;;;;;22.00;15.93;;;;;;;;;;5096614;28;20032;-64
2022/12/12 08:10:39;;;;;;;20.38;13.90;;;;;;;;;;5096560;28;20019;-64
2022/12/12 08:13:05;;;;;;;15.63;11.23;;;;;;;;;;5096493;28;20106;-64
2022/12/12 08:15:30;;;;;;;15.50;11.20;;;;;;;;;;5096008;28;20403;-64
2022/12/12 08:17:56;;;;;;;18.45;13.35;;;;;;;;;;5096477;28;20031;-64
2022/12/12 08:20:21;;;;;;;15.82;11.38;;;;;;;;;;5078337;28;20359;-64
2022/12/12 08:22:47;;;;;;;15.10;10.73;;;;;;;;;;5096185;28;20028;-64
2022/12/12 08:25:12;;;;;;;19.63;13.65;;;;;;;;;;5096236;28;20100;-64
2022/12/12 08:27:38;;;;;;;15.32;11.70;;;;;;;;;;5096360;28;20378;-64
2022/12/12 08:30:04;;;;;;;14.95;10.18;;;;;;;;;;5096378;28;20436;-64
2022/12/12 08:32:29;;;;;;;16.27;11.65;;;;;;;;;;5096123;28;20032;-64
2022/12/12 08:34:55;;;;;;;16.73;12.82;;;;;;;;;;5096040;28;20462;-64
2022/12/12 08:37:21;;;;;;;14.63;10.77;;;;;;;;;;5095887;28;20055;-64
2022/12/12 08:39:46;;;;;;;20.20;14.23;;;;;;;;;;5095964;28;20467;-64
2022/12/12 08:42:12;;;;;;;20.60;14.15;;;;;;;;;;5095903;28;20031;-64
2022/12/12 08:44:37;;;;;;;18.95;14.27;;;;;;;;;;5096057;28;20073;-64
2022/12/12 08:47:03;;;;;;;19.40;13.63;;;;;;;;;;5095872;28;20447;-64
2022/12/12 08:49:28;;;;;;;20.00;13.35;;;;;;;;;;5095958;28;20076;-64
2022/12/12 08:51:53;;;;;;;17.10;12.75;;;;;;;;;;5095947;28;20023;-64
2022/12/12 08:54:19;;;;;;;18.20;13.32;;;;;;;;;;5095663;28;20497;-64
2022/12/12 08:56:44;;;;;;;19.30;14.48;;;;;;;;;;5095578;28;20550;-64
2022/12/12 08:59:09;;;;;;;22.25;13.70;;;;;;;;;;5095563;28;20106;-64
2022/12/12 09:01:35;;;;;;;22.58;13.73;;;;;;;;;;5095493;28;20044;-64
2022/12/12 09:04:01;;;;;;;19.73;14.10;;;;;;;;;;5095333;28;20039;-64
2022/12/12 09:06:26;;;;;;;24.77;17.27;;;;;;;;;;5095511;28;20054;-64
2022/12/12 09:08:51;;;;;;;22.50;15.02;;;;;;;;;;5095383;28;20056;-64
2022/12/12 09:11:17;;;;;;;21.33;14.85;;;;;;;;;;5095367;28;20024;-64
2022/12/12 09:13:43;;;;;;;23.80;16.58;;;;;;;;;;5095246;28;20039;-64
2022/12/12 09:16:09;;;;;;;21.20;14.20;;;;;;;;;;5095271;28;20047;-64
2022/12/12 09:18:34;;;;;;;27.30;17.63;;;;;;;;;;5077059;28;20063;-64
2022/12/12 09:21:00;;;;;;;17.70;11.27;;;;;;;;;;5077172;28;20147;-64
2022/12/12 09:23:26;;;;;;;22.73;14.27;;;;;;;;;;5095117;28;20067;-64
2022/12/12 09:25:52;;;;;;;17.65;10.95;;;;;;;;;;5095150;28;20020;-64
2022/12/12 09:28:18;;;;;;;18.35;12.35;;;;;;;;;;5095039;28;20020;-64
2022/12/12 09:30:44;;;;;;;22.45;15.32;;;;;;;;;;5095038;28;20098;-64
2022/12/12 09:33:10;;;;;;;25.65;15.88;;;;;;;;;;5095070;28;20027;-64
2022/12/12 09:35:36;;;;;;;18.85;12.82;;;;;;;;;;5094844;28;20077;-63
2022/12/12 09:38:01;;;;;;;19.27;12.77;;;;;;;;;;5094789;28;20055;-64
2022/12/12 09:40:36;;;;;;;17.83;12.35;;;;;;;;;;5094830;28;20025;-64
2022/12/12 09:43:02;;;;;;;19.02;13.27;;;;;;;;;;5094690;28;20093;-63
2022/12/12 09:45:29;;;;;;;21.33;14.48;;;;;;;;;;5094711;28;20405;-64
2022/12/12 09:47:57;;;;;;;26.08;16.50;;;;;;;;;;5094788;28;20103;-64
2022/12/12 09:50:35;;;;;;;14.02;9.55;;;;;;;;;;5094585;28;20069;-64
2022/12/12 09:53:05;;;;;;;23.90;14.88;;;;;;;;;;5059717;28;20067;-64
2022/12/12 09:55:30;;;;;;;18.95;13.32;;;;;;;;;;5094679;28;20024;-64
2022/12/12 09:58:02;;;;;;;21.65;14.55;;;;;;;;;;5094643;28;20462;-64
2022/12/12 10:00:30;;;;;;;20.83;13.30;;;;;;;;;;5094547;28;20024;-64
2022/12/12 10:03:07;;;;;;;17.10;12.05;;;;;;;;;;5094441;28;20028;-64
2022/12/12 10:05:52;;;;;;;19.55;13.40;;;;;;;;;;5094426;28;20039;-64
2022/12/12 10:08:36;;;;;;;18.88;14.10;;;;;;;;;;5094301;28;20478;-63
2022/12/12 10:11:48;;;;;;;16.50;12.45;;;;;;;;;;5094011;28;20540;-65
2022/12/12 10:13:52;;;;;;;18.83;12.27;;;;;;;;;;5093833;28;20103;-64
2022/12/12 10:16:17;;;;;;;14.98;9.75;;;;;;;;;;5093826;28;20016;-62
2022/12/12 10:18:47;;;;;;;24.33;10.80;;;;;;;;;;5094719;28;20383;-62
2022/12/12 10:21:14;;;;;;;16.20;8.00;;;;;;;;;;5094596;28;20111;-64
2022/12/12 10:23:43;;;;;;;20.67;12.68;;;;;;;;;;5094147;28;20028;-63
2022/12/12 10:26:14;;;;;;;23.80;14.43;;;;;;;;;;5094105;28;20020;-63
2022/12/12 10:28:40;;;;;;;24.17;13.77;;;;;;;;;;5093974;28;20386;-63
2022/12/12 10:31:24;;;;;;;28.88;17.55;;;;;;;;;;5093978;28;20023;-64
2022/12/12 10:34:08;;;;;;;29.42;17.77;;;;;;;;;;5093604;28;20024;-64
2022/12/12 10:36:52;;;;;;;29.33;16.83;;;;;;;;;;5093760;28;20056;-64
2022/12/12 10:39:26;;;;;;;31.90;19.27;;;;;;;;;;5093376;28;20024;-64
2022/12/12 10:41:56;;;;;;;14.40;7.75;;;;;;;;;;5093162;28;20081;-64
2022/12/12 10:44:27;;;;;;;27.45;17.08;;;;;;;;;;5093189;28;20033;-64
2022/12/12 10:47:03;;;;;;;32.08;18.75;;;;;;;;;;5092599;28;20048;-64
2022/12/12 10:49:29;;;;;;;32.78;18.45;;;;;;;;;;5093441;28;20020;-64
2022/12/12 10:51:55;;;;;;;31.55;18.13;;;;;;;;;;5093472;28;20061;-64
2022/12/12 10:54:21;;;;;;;24.55;13.13;;;;;;;;;;5093353;28;20076;-64
2022/12/12 10:57:02;;;;;;;32.00;19.23;;;;;;;;;;5093167;28;20024;-64
2022/12/12 10:59:27;;;;;;;29.17;18.90;;;;;;;;;;5092549;28;20032;-64
2022/12/12 11:01:57;;;;;;;28.10;17.40;;;;;;;;;;5092225;28;20098;-63
2022/12/12 11:04:23;;;;;;;23.75;14.07;;;;;;;;;;5057232;28;20074;-64
2022/12/12 11:06:50;;;;;;;27.50;15.40;;;;;;;;;;5092440;28;20023;-64
2022/12/12 11:09:15;;;;;;;29.50;18.52;;;;;;;;;;5074404;28;20024;-64
2022/12/12 11:11:55;;;;;;;29.65;16.58;;;;;;;;;;5092416;28;20448;-64
2022/12/12 11:14:22;;;;;;;26.17;15.52;;;;;;;;;;5092412;28;20032;-63
2022/12/12 11:16:47;;;;;;;22.50;13.88;;;;;;;;;;5092122;28;20465;-64
2022/12/12 11:19:17;;;;;;;30.33;18.75;;;;;;;;;;5091992;28;20036;-63
2022/12/12 11:21:43;;;;;;;27.33;17.27;;;;;;;;;;5092319;28;20020;-64
2022/12/12 11:24:12;;;;;;;24.77;15.25;;;;;;;;;;5091869;28;20538;-64
2022/12/12 11:26:40;;;;;;;28.20;18.17;;;;;;;;;;5091980;28;20024;-64
2022/12/12 11:29:05;;;;;;;28.58;18.58;;;;;;;;;;5091935;28;20039;-64
2022/12/12 11:31:33;;;;;;;27.73;17.27;;;;;;;;;;5092259;28;20020;-64
2022/12/12 11:34:00;;;;;;;29.20;18.85;;;;;;;;;;5092240;28;20032;-64
2022/12/12 11:36:52;;;;;;;28.02;16.55;;;;;;;;;;5091964;28;20043;-63
2022/12/12 11:39:26;;;;;;;24.15;14.60;;;;;;;;;;5087119;28;20394;-63
2022/12/12 11:41:58;;;;;;;18.88;11.45;;;;;;;;;;5092107;28;20036;-64
2022/12/12 11:44:26;;;;;;;22.33;14.30;;;;;;;;;;5091997;28;20039;-63
2022/12/12 11:46:54;;;;;;;12.40;6.95;;;;;;;;;;5091976;28;20082;-64
2022/12/12 11:49:19;;;;;;;23.60;14.85;;;;;;;;;;5092114;28;20489;-64
2022/12/12 11:51:44;;;;;;;17.08;8.00;;;;;;;;;;5094895;28;20028;-64
2022/12/12 11:54:15;;;;;;;14.15;8.60;;;;;;;;;;5095841;28;20545;-64
2022/12/12 11:56:49;;;;;;;19.00;11.02;;;;;;;;;;5095799;28;20039;-64
2022/12/12 11:59:20;;;;;;;13.80;7.63;;;;;;;;;;5095918;28;20512;-64
2022/12/12 12:01:58;;;;;;;22.63;12.07;;;;;;;;;;5095627;28;20035;-65
2022/12/12 12:04:33;;;;;;;19.77;13.95;;;;;;;;;;5095391;28;20458;-64
2022/12/12 12:07:04;;;;;;;33.40;15.30;;;;;;;;;;5095847;28;20020;-65
2022/12/12 12:09:41;;;;;;;33.83;16.02;;;;;;;;;;5095468;28;20111;-65
2022/12/12 12:12:14;;;;;;;25.38;12.57;;;;;;;;;;5095639;28;20028;-64
2022/12/12 12:14:52;;;;;;;24.45;13.18;;;;;;;;;;5095377;28;20148;-64
2022/12/12 12:17:26;;;;;;;22.52;13.60;;;;;;;;;;5095287;28;20024;-64
2022/12/12 12:19:57;;;;;;;23.05;13.30;;;;;;;;;;5095286;28;20390;-64
2022/12/12 12:22:31;;;;;;;25.10;13.98;;;;;;;;;;5095070;28;20035;-64
2022/12/12 12:25:07;;;;;;;9.75;5.70;;;;;;;;;;5095198;28;20032;-64
2022/12/12 12:27:51;;;;;;;18.23;10.00;;;;;;;;;;5095076;28;20444;-64
2022/12/12 12:30:21;;;;;;;16.08;8.93;;;;;;;;;;5095058;28;20024;-64
2022/12/12 12:33:04;;;;;;;21.48;12.18;;;;;;;;;;5094925;28;20035;-64
2022/12/12 12:35:30;;;;;;;16.20;10.52;;;;;;;;;;5077085;28;20445;-64
2022/12/12 12:37:56;;;;;;;14.20;8.27;;;;;;;;;;5094715;28;20048;-64
2022/12/12 12:40:39;;;;;;;14.00;9.35;;;;;;;;;;5094815;28;20031;-64
2022/12/12 12:43:05;;;;;;;15.55;7.65;;;;;;;;;;5094756;28;20082;-64
2022/12/12 12:45:44;;;;;;;18.15;10.07;;;;;;;;;;5094735;28;20019;-64
2022/12/12 12:48:27;;;;;;;15.55;8.15;;;;;;;;;;5094740;28;20024;-64
2022/12/12 12:51:07;;;;;;;17.20;9.38;;;;;;;;;;5094692;28;20028;-64
2022/12/12 12:53:39;;;;;;;18.15;10.88;;;;;;;;;;5094956;28;20103;-64
2022/12/12 12:56:13;;;;;;;18.85;11.43;;;;;;;;;;5094502;28;20031;-64
2022/12/12 12:58:42;;;;;;;17.88;10.95;;;;;;;;;;5094632;28;20105;-64
2022/12/12 13:01:11;;;;;;;16.00;9.18;;;;;;;;;;5094154;28;20016;-64
2022/12/12 13:03:44;;;;;;;14.73;9.07;;;;;;;;;;5094386;28;20028;-64
2022/12/12 13:06:13;;;;;;;18.13;10.52;;;;;;;;;;5094390;28;20516;-64
2022/12/12 13:08:59;;;;;;;12.40;8.50;;;;;;;;;;5094040;28;20436;-61
2022/12/12 13:11:33;;;;;;;18.90;12.68;;;;;;;;;;5094015;28;20024;-63
2022/12/12 13:14:04;;;;;;;17.88;12.95;;;;;;;;;;5094210;28;20043;-63
2022/12/12 13:16:31;;;;;;;18.67;13.15;;;;;;;;;;5093867;28;20020;-63
2022/12/12 13:19:08;;;;;;;17.95;12.52;;;;;;;;;;5094320;28;20024;-64
2022/12/12 13:21:42;;;;;;;22.02;13.68;;;;;;;;;;5094047;28;20036;-63
2022/12/12 13:24:19;;;;;;;19.73;12.50;;;;;;;;;;5093888;28;20091;-63
2022/12/12 13:26:54;;;;;;;23.23;13.60;;;;;;;;;;5094177;28;20024;-63
2022/12/12 13:29:28;;;;;;;15.70;11.52;;;;;;;;;;5093914;28;20355;-64
2022/12/12 13:32:03;;;;;;;16.25;11.63;;;;;;;;;;5075785;28;20413;-64
2022/12/12 13:34:29;;;;;;;20.23;12.95;;;;;;;;;;5093781;28;20040;-64
2022/12/12 13:36:56;;;;;;;19.63;13.20;;;;;;;;;;5093611;28;20052;-64
2022/12/12 13:39:29;;;;;;;18.52;11.68;;;;;;;;;;5093661;28;20032;-64
2022/12/12 13:41:56;;;;;;;17.90;12.65;;;;;;;;;;5093695;28;20028;-64
2022/12/12 13:44:34;;;;;;;23.25;13.27;;;;;;;;;;5093241;28;20020;-64
2022/12/12 13:47:00;;;;;;;17.88;12.35;;;;;;;;;;5094762;28;20035;-64
2022/12/12 13:49:29;;;;;;;19.85;12.60;;;;;;;;;;5094263;28;20016;-64
2022/12/12 13:52:13;;;;;;;16.40;11.52;;;;;;;;;;5094948;28;20485;-64
2022/12/12 13:54:43;;;;;;;18.15;12.13;;;;;;;;;;5094970;28;20110;-63
2022/12/12 13:57:12;;;;;;;20.98;12.82;;;;;;;;;;5094484;28;20023;-64
2022/12/12 14:00:01;;;;;;;20.83;13.48;;;;;;;;;;5094523;28;20074;-64
2022/12/12 14:02:31;;;;;;;18.40;13.32;;;;;;;;;;5065123;28;20406;-64
2022/12/12 14:05:20;;;;;;;23.08;15.88;;;;;;;;;;5094455;28;20050;-64
2022/12/12 14:07:50;;;;;;;20.45;14.82;;;;;;;;;;5094920;28;20024;-64
2022/12/12 14:10:36;;;;;;;19.20;14.40;;;;;;;;;;5094673;28;20055;-64
2022/12/12 14:13:25;;;;;;;20.67;14.60;;;;;;;;;;5093631;28;20040;-64
2022/12/12 14:15:56;;;;;;;21.75;14.50;;;;;;;;;;5094678;28;20035;-64
2022/12/12 14:18:28;;;;;;;21.80;14.98;;;;;;;;;;5094149;28;20036;-64
2022/12/12 14:20:59;;;;;;;18.10;12.68;;;;;;;;;;5094087;28;20062;-64
2022/12/12 14:23:32;;;;;;;19.60;14.02;;;;;;;;;;5094006;28;20035;-64
2022/12/12 14:25:58;;;;;;;18.23;11.18;;;;;;;;;;5093771;28;20485;-64
2022/12/12 14:28:31;;;;;;;18.17;11.88;;;;;;;;;;5094422;28;20453;-64
2022/12/12 14:30:57;;;;;;;16.98;13.00;;;;;;;;;;5093273;28;20103;-64
2022/12/12 14:33:22;;;;;;;20.55;13.75;;;;;;;;;;5093627;28;20107;-64
2022/12/12 14:35:50;;;;;;;20.02;14.25;;;;;;;;;;5093845;28;20028;-64
2022/12/12 14:38:29;;;;;;;17.80;11.88;;;;;;;;;;5093681;28;20040;-64
2022/12/12 14:40:58;;;;;;;17.40;12.40;;;;;;;;;;5093797;28;20031;-64
2022/12/12 14:43:25;;;;;;;15.43;11.80;;;;;;;;;;5092552;28;20397;-64
2022/12/12 14:45:58;;;;;;;14.00;11.40;;;;;;;;;;5092406;28;20366;-64
2022/12/12 14:48:24;;;;;;;15.48;12.65;;;;;;;;;;5092380;28;20016;-64